createdAt,value
2018-01-18T00:00:31.180Z,98.16
2018-01-18T00:02:32.671Z,98.44
2018-01-18T00:04:34.154Z,98.25
2018-01-18T00:06:35.642Z,97.87
2018-01-18T00:08:37.561Z,98.25
2018-01-18T00:10:39.007Z,98.35
2018-01-18T00:12:40.882Z,98.25
2018-01-18T00:14:42.809Z,98.25
2018-01-18T00:16:44.732Z,97.78
2018-01-18T00:18:46.246Z,97.78
2018-01-18T00:20:47.709Z,98.16
2018-01-18T00:23:32.280Z,98.16
2018-01-18T00:25:33.830Z,98.35
2018-01-18T00:27:35.238Z,97.97
2018-01-18T00:29:36.639Z,97.78
2018-01-18T00:31:38.044Z,97.68
2018-01-18T00:33:39.753Z,98.54
2018-01-18T00:35:41.153Z,98.16
2018-01-18T00:37:42.928Z,97.78
2018-01-18T00:39:44.448Z,97.40
2018-01-18T00:42:26.997Z,96.55
2018-01-18T00:44:28.416Z,97.40
2018-01-18T00:46:29.803Z,97.11
2018-01-18T00:48:31.563Z,96.83
2018-01-18T00:50:34.773Z,97.11
2018-01-18T00:52:36.973Z,96.36
2018-01-18T00:54:38.426Z,96.36
2018-01-18T00:56:40.526Z,96.64
2018-01-18T00:58:42.451Z,95.98
2018-01-18T01:00:44.693Z,95.88
2018-01-18T01:03:30.243Z,96.12
2018-01-18T01:05:31.446Z,95.03
2018-01-18T01:07:32.966Z,95.22
2018-01-18T01:09:34.365Z,95.69
2018-01-18T01:11:35.820Z,95.22
2018-01-18T01:13:37.676Z,95.12
2018-01-18T01:15:39.188Z,95.60
2018-01-18T01:17:40.711Z,95.41
2018-01-18T01:19:42.823Z,95.12
2018-01-18T01:21:44.346Z,95.22
2018-01-18T01:23:45.873Z,95.07
2018-01-18T01:25:47.678Z,95.50
2018-01-18T01:27:49.140Z,95.60
2018-01-18T01:29:50.579Z,95.41
2018-01-18T01:31:52.058Z,95.03
2018-01-18T01:33:53.552Z,95.41
2018-01-18T01:35:55.188Z,95.60
2018-01-18T01:37:56.958Z,95.98
2018-01-18T01:39:58.500Z,95.79
2018-01-18T01:42:00.205Z,95.22
2018-01-18T01:44:02.374Z,95.60
2018-01-18T01:46:04.038Z,95.12
2018-01-18T01:48:05.540Z,96.07
2018-01-18T01:50:07.307Z,95.50
2018-01-18T01:52:08.831Z,95.50
2018-01-18T01:54:10.342Z,95.69
2018-01-18T01:56:12.408Z,96.36
2018-01-18T01:58:14.761Z,96.36
2018-01-18T02:00:16.312Z,95.98
2018-01-18T02:02:18.484Z,95.74
2018-01-18T02:04:19.942Z,95.55
2018-01-18T02:06:21.570Z,95.93
2018-01-18T02:08:23.705Z,95.03
2018-01-18T02:10:25.260Z,95.65
2018-01-18T02:12:26.779Z,95.65
2018-01-18T02:14:29.157Z,95.84
2018-01-18T02:16:31.478Z,95.65
2018-01-18T02:18:33.029Z,96.03
2018-01-18T02:20:34.849Z,96.03
2018-01-18T02:23:21.400Z,95.55
2018-01-18T02:25:22.645Z,96.12
2018-01-18T02:27:24.990Z,95.84
2018-01-18T02:29:26.377Z,95.93
2018-01-18T02:31:27.766Z,95.65
2018-01-18T02:33:29.171Z,95.74
2018-01-18T02:35:30.574Z,96.03
2018-01-18T02:37:31.973Z,95.36
2018-01-18T02:39:34.165Z,95.74
2018-01-18T02:41:36.169Z,95.74
2018-01-18T02:43:38.072Z,95.55
2018-01-18T02:45:39.676Z,95.36
2018-01-18T02:47:41.470Z,95.36
2018-01-18T02:49:43.665Z,95.36
2018-01-18T02:51:45.665Z,95.07
2018-01-18T02:53:47.118Z,94.89
2018-01-18T02:55:48.842Z,94.89
2018-01-18T02:57:50.283Z,95.55
2018-01-18T02:59:51.821Z,95.07
2018-01-18T03:02:38.019Z,95.36
2018-01-18T03:04:39.696Z,95.84
2018-01-18T03:06:41.112Z,95.65
2018-01-18T03:08:43.307Z,95.93
2018-01-18T03:10:44.736Z,95.84
2018-01-18T03:12:46.214Z,96.59
2018-01-18T03:14:48.383Z,96.59
2018-01-18T03:16:49.894Z,96.69
2018-01-18T03:18:51.681Z,96.78
2018-01-18T03:20:53.202Z,96.78
2018-01-18T03:22:54.677Z,96.87
2018-01-18T03:24:56.078Z,96.87
2018-01-18T03:26:57.558Z,96.78
2018-01-18T03:28:59.322Z,97.45
2018-01-18T03:31:00.867Z,97.54
2018-01-18T03:33:02.345Z,97.26
2018-01-18T03:35:03.834Z,97.45
2018-01-18T03:37:05.306Z,98.39
2018-01-18T03:39:07.500Z,98.02
2018-01-18T03:41:09.049Z,98.68
2018-01-18T03:43:10.776Z,99.06
2018-01-18T03:45:12.274Z,99.91
2018-01-18T03:47:13.747Z,99.99
2018-01-18T03:49:15.205Z,99.99
2018-01-18T03:51:17.025Z,99.99
2018-01-18T03:53:18.513Z,99.99
2018-01-18T03:55:20.716Z,99.99
2018-01-18T03:57:23.558Z,99.99
2018-01-18T03:59:25.089Z,99.99
2018-01-18T04:01:26.667Z,99.99
2018-01-18T04:03:28.742Z,99.99
2018-01-18T04:05:30.809Z,99.99
2018-01-18T04:07:32.633Z,99.99
2018-01-18T04:09:34.090Z,99.99
2018-01-18T04:11:35.558Z,99.99
2018-01-18T04:13:36.968Z,99.99
2018-01-18T04:15:38.465Z,99.99
2018-01-18T04:17:40.602Z,99.99
2018-01-18T04:19:42.093Z,99.99
2018-01-18T04:21:43.809Z,99.99
2018-01-18T04:23:45.312Z,99.99
2018-01-18T04:25:46.941Z,99.99
2018-01-18T04:27:48.429Z,99.99
2018-01-18T04:29:49.910Z,99.99
2018-01-18T04:31:51.316Z,99.99
2018-01-18T04:33:52.724Z,99.99
2018-01-18T04:35:54.424Z,99.99
2018-01-18T04:37:55.833Z,99.99
2018-01-18T04:39:57.773Z,99.99
2018-01-18T04:42:39.377Z,99.99
2018-01-18T04:44:42.673Z,99.99
2018-01-18T04:46:44.042Z,99.99
2018-01-18T04:48:45.451Z,99.99
2018-01-18T04:50:46.899Z,99.99
2018-01-18T04:52:48.613Z,99.99
2018-01-18T04:54:50.516Z,99.99
2018-01-18T04:56:52.035Z,99.99
2018-01-18T04:58:53.426Z,99.99
2018-01-18T05:00:55.483Z,99.99
2018-01-18T05:02:57.510Z,99.99
2018-01-18T05:04:58.997Z,99.99
2018-01-18T05:07:00.598Z,99.99
2018-01-18T05:09:02.682Z,99.99
2018-01-18T05:11:04.652Z,99.99
2018-01-18T05:13:06.219Z,99.99
2018-01-18T05:15:08.219Z,99.99
2018-01-18T05:17:10.205Z,99.99
2018-01-18T05:19:12.079Z,99.99
2018-01-18T05:21:14.036Z,99.99
2018-01-18T05:23:15.784Z,99.99
2018-01-18T05:25:17.760Z,99.99
2018-01-18T05:27:19.274Z,99.99
2018-01-18T05:29:20.681Z,99.99
2018-01-18T05:31:22.172Z,99.99
2018-01-18T05:33:24.046Z,99.99
2018-01-18T05:35:25.574Z,99.99
2018-01-18T05:37:27.130Z,99.99
2018-01-18T05:39:29.215Z,99.99
2018-01-18T05:41:31.161Z,99.99
2018-01-18T05:43:32.695Z,99.99
2018-01-18T05:45:34.153Z,99.99
2018-01-18T05:47:36.199Z,99.99
2018-01-18T05:49:38.398Z,99.99
2018-01-18T05:51:39.775Z,99.99
2018-01-18T05:53:41.177Z,99.99
2018-01-18T05:55:42.613Z,99.99
2018-01-18T05:57:44.030Z,99.99
2018-01-18T05:59:45.600Z,99.99
2018-01-18T06:01:47.597Z,99.99
2018-01-18T06:03:49.340Z,99.99
2018-01-18T06:05:50.826Z,99.99
2018-01-18T06:07:52.677Z,99.99
2018-01-18T06:09:54.181Z,99.99
2018-01-18T06:11:55.671Z,99.99
2018-01-18T06:13:57.154Z,99.99
2018-01-18T06:15:58.639Z,99.99
2018-01-18T06:18:00.088Z,99.99
2018-01-18T06:20:01.565Z,99.99
2018-01-18T06:22:03.710Z,99.99
2018-01-18T06:24:05.151Z,99.99
2018-01-18T06:26:06.606Z,99.99
2018-01-18T06:28:08.908Z,99.99
2018-01-18T06:30:10.431Z,99.99
2018-01-18T06:32:12.765Z,99.99
2018-01-18T06:34:14.866Z,99.99
2018-01-18T06:36:17.021Z,99.99
2018-01-18T06:38:19.150Z,99.99
2018-01-18T06:40:21.026Z,99.99
2018-01-18T06:42:22.613Z,99.99
2018-01-18T06:44:24.098Z,99.99
2018-01-18T06:46:25.577Z,99.99
2018-01-18T06:48:27.177Z,99.99
2018-01-18T06:50:28.652Z,99.99
2018-01-18T06:52:30.187Z,99.99
2018-01-18T06:54:31.612Z,99.99
2018-01-18T06:56:33.069Z,99.99
2018-01-18T06:58:34.552Z,99.99
2018-01-18T07:00:36.029Z,99.99
2018-01-18T07:02:37.566Z,99.99
2018-01-18T07:04:39.098Z,99.99
2018-01-18T07:06:40.600Z,99.99
2018-01-18T07:08:42.120Z,99.99
2018-01-18T07:10:43.643Z,99.99
2018-01-18T07:12:45.793Z,99.99
2018-01-18T07:14:47.313Z,99.99
2018-01-18T07:16:48.790Z,99.99
2018-01-18T07:18:50.282Z,99.99
2018-01-18T07:20:51.820Z,99.99
2018-01-18T07:23:33.581Z,99.99
2018-01-18T07:25:35.117Z,99.99
2018-01-18T07:27:38.226Z,99.99
2018-01-18T07:29:40.560Z,99.99
2018-01-18T07:31:41.900Z,99.99
2018-01-18T07:33:43.565Z,99.99
2018-01-18T07:35:45.010Z,99.99
2018-01-18T07:37:46.607Z,99.99
2018-01-18T07:39:48.199Z,99.99
2018-01-18T07:41:49.828Z,99.99
2018-01-18T07:43:51.318Z,99.99
2018-01-18T07:45:52.836Z,99.99
2018-01-18T07:47:54.505Z,99.99
2018-01-18T07:49:55.979Z,99.99
2018-01-18T07:51:57.516Z,99.99
2018-01-18T07:53:59.394Z,99.99
2018-01-18T07:56:00.918Z,99.99
2018-01-18T07:58:02.392Z,99.99
2018-01-18T08:00:03.969Z,99.99
2018-01-18T08:02:05.545Z,99.99
2018-01-18T08:04:07.889Z,99.99
2018-01-18T08:06:10.171Z,99.99
2018-01-18T08:08:11.770Z,99.99
2018-01-18T08:10:13.731Z,99.99
2018-01-18T08:12:16.251Z,99.99
2018-01-18T08:14:18.613Z,99.99
2018-01-18T08:16:20.304Z,99.99
2018-01-18T08:18:22.765Z,99.99
2018-01-18T08:20:24.810Z,99.99
2018-01-18T08:22:26.428Z,99.99
2018-01-18T08:24:28.659Z,99.99
2018-01-18T08:26:30.802Z,99.99
2018-01-18T08:28:32.448Z,99.99
2018-01-18T08:30:34.086Z,99.99
2018-01-18T08:32:35.781Z,99.99
2018-01-18T08:34:37.554Z,99.99
2018-01-18T08:36:39.684Z,99.99
2018-01-18T08:38:41.451Z,99.99
2018-01-18T08:40:43.163Z,99.99
2018-01-18T08:42:44.984Z,99.99
2018-01-18T08:44:46.703Z,99.99
2018-01-18T08:46:48.385Z,99.99
2018-01-18T08:48:49.911Z,99.99
2018-01-18T08:50:51.419Z,99.99
2018-01-18T08:52:52.959Z,99.99
2018-01-18T08:54:54.768Z,99.99
2018-01-18T08:56:56.650Z,99.99
2018-01-18T08:58:58.330Z,99.99
2018-01-18T09:01:00.012Z,98.12
2018-01-18T09:03:01.596Z,95.56
2018-01-18T09:05:03.706Z,92.03
2018-01-18T09:07:05.515Z,88.13
2018-01-18T09:09:07.942Z,87.57
2018-01-18T09:11:09.654Z,87.38
2018-01-18T09:13:11.242Z,89.09
2018-01-18T09:15:13.506Z,90.99
2018-01-18T09:17:15.174Z,92.89
2018-01-18T09:19:16.837Z,96.84
2018-01-18T09:21:18.947Z,98.45
2018-01-18T09:23:20.540Z,98.45
2018-01-18T09:25:22.082Z,99.78
2018-01-18T09:27:23.616Z,98.45
2018-01-18T09:29:25.129Z,95.79
2018-01-18T09:31:26.630Z,94.84
2018-01-18T09:33:28.310Z,90.37
2018-01-18T09:35:30.174Z,89.52
2018-01-18T09:37:32.006Z,87.62
2018-01-18T09:39:33.855Z,86.19
2018-01-18T09:41:35.653Z,85.05
2018-01-18T09:43:37.380Z,84.86
2018-01-18T09:45:39.240Z,84.39
2018-01-18T09:47:41.029Z,84.48
2018-01-18T09:49:42.792Z,85.34
2018-01-18T09:51:44.564Z,84.29
2018-01-18T09:53:46.067Z,84.48
2018-01-18T09:55:47.541Z,82.87
2018-01-18T09:57:49.033Z,82.58
2018-01-18T09:59:50.539Z,83.62
2018-01-18T10:01:52.128Z,84.39
2018-01-18T10:03:54.046Z,84.34
2018-01-18T10:05:55.665Z,84.06
2018-01-18T10:07:57.563Z,84.91
2018-01-18T10:09:59.436Z,86.24
2018-01-18T10:12:01.194Z,84.72
2018-01-18T10:14:02.645Z,83.01
2018-01-18T10:16:04.164Z,84.91
2018-01-18T10:18:05.640Z,84.44
2018-01-18T10:20:07.533Z,84.87
2018-01-18T10:22:09.230Z,86.49
2018-01-18T10:24:11.053Z,86.49
2018-01-18T10:26:12.835Z,88.39
2018-01-18T10:28:14.613Z,88.29
2018-01-18T10:30:16.178Z,88.95
2018-01-18T10:32:17.862Z,89.62
2018-01-18T10:34:19.509Z,89.67
2018-01-18T10:36:21.131Z,89.58
2018-01-18T10:38:22.905Z,90.14
2018-01-18T10:40:24.700Z,90.43
2018-01-18T10:42:26.396Z,91.38
2018-01-18T10:44:28.096Z,91.38
2018-01-18T10:46:29.896Z,92.23
2018-01-18T10:48:31.613Z,92.71
2018-01-18T10:50:33.359Z,92.71
2018-01-18T10:52:35.107Z,94.03
2018-01-18T10:54:36.642Z,95.36
2018-01-18T10:56:38.474Z,95.36
2018-01-18T10:58:40.341Z,96.41
2018-01-18T11:00:42.137Z,97.17
2018-01-18T11:02:43.883Z,96.88
2018-01-18T11:04:45.630Z,95.84
2018-01-18T11:06:47.357Z,95.46
2018-01-18T11:08:49.162Z,95.27
2018-01-18T11:10:50.934Z,94.98
2018-01-18T11:12:52.753Z,94.42
2018-01-18T11:14:54.382Z,93.84
2018-01-18T11:16:55.869Z,92.52
2018-01-18T11:18:57.724Z,91.47
2018-01-18T11:20:59.448Z,91.00
2018-01-18T11:23:00.910Z,89.29
2018-01-18T11:25:02.466Z,87.96
2018-01-18T11:27:04.172Z,88.81
2018-01-18T11:29:05.759Z,87.96
2018-01-18T11:31:07.258Z,88.91
2018-01-18T11:33:08.776Z,88.86
2018-01-18T11:35:10.249Z,87.82
2018-01-18T11:37:11.746Z,87.43
2018-01-18T11:39:13.276Z,86.96
2018-01-18T11:41:14.762Z,86.58
2018-01-18T11:43:16.241Z,86.39
2018-01-18T11:45:17.719Z,87.24
2018-01-18T11:47:19.152Z,87.53
2018-01-18T11:49:20.626Z,87.43
2018-01-18T11:51:22.280Z,88.01
2018-01-18T11:53:23.935Z,87.62
2018-01-18T11:55:25.421Z,87.15
2018-01-18T11:57:26.898Z,88.10
2018-01-18T11:59:28.418Z,88.95
2018-01-18T12:01:29.884Z,88.76
2018-01-18T12:03:31.353Z,88.48
2018-01-18T12:05:32.818Z,89.33
2018-01-18T12:07:34.297Z,87.82
2018-01-18T12:09:35.785Z,88.67
2018-01-18T12:11:37.275Z,88.86
2018-01-18T12:13:38.721Z,88.76
2018-01-18T12:15:40.205Z,89.14
2018-01-18T12:17:41.855Z,89.72
2018-01-18T12:19:43.358Z,90.76
2018-01-18T12:21:45.046Z,89.81
2018-01-18T12:23:46.545Z,90.19
2018-01-18T12:25:48.085Z,89.62
2018-01-18T12:27:49.672Z,90.95
2018-01-18T12:29:51.324Z,89.62
2018-01-18T12:31:52.876Z,88.76
2018-01-18T12:33:54.387Z,88.57
2018-01-18T12:35:55.969Z,87.62
2018-01-18T12:37:57.477Z,87.91
2018-01-18T12:39:58.974Z,88.01
2018-01-18T12:42:00.520Z,87.43
2018-01-18T12:44:02.074Z,87.72
2018-01-18T12:46:03.618Z,87.48
2018-01-18T12:48:05.098Z,88.43
2018-01-18T12:50:06.612Z,87.67
2018-01-18T12:52:08.090Z,87.48
2018-01-18T12:54:09.644Z,87.82
2018-01-18T12:56:11.176Z,86.63
2018-01-18T12:58:12.810Z,87.91
2018-01-18T13:00:14.570Z,88.10
2018-01-18T13:02:16.744Z,88.53
2018-01-18T13:04:18.282Z,90.09
2018-01-18T13:06:19.839Z,90.90
2018-01-18T13:08:21.538Z,90.42
2018-01-18T13:10:23.358Z,90.80
2018-01-18T13:12:24.800Z,91.66
2018-01-18T13:14:26.489Z,91.09
2018-01-18T13:16:27.936Z,90.33
2018-01-18T13:18:29.404Z,90.80
2018-01-18T13:20:30.863Z,89.19
2018-01-18T13:22:32.479Z,88.62
2018-01-18T13:24:34.002Z,88.24
2018-01-18T13:26:35.556Z,87.19
2018-01-18T13:28:37.045Z,85.20
2018-01-18T13:30:38.546Z,84.72
2018-01-18T13:32:40.091Z,85.11
2018-01-18T13:34:41.569Z,84.72
2018-01-18T13:36:43.033Z,84.82
2018-01-18T13:38:44.567Z,84.91
2018-01-18T13:40:46.048Z,86.34
2018-01-18T13:42:47.552Z,86.72
2018-01-18T13:44:49.017Z,87.10
2018-01-18T13:46:50.535Z,87.95
2018-01-18T13:48:52.014Z,87.57
2018-01-18T13:50:53.465Z,87.67
2018-01-18T13:52:55.063Z,87.95
2018-01-18T13:54:56.508Z,86.34
2018-01-18T13:56:57.949Z,86.53
2018-01-18T13:58:59.432Z,87.19
2018-01-18T14:01:00.930Z,87.76
2018-01-18T14:03:02.450Z,87.91
2018-01-18T14:05:04.124Z,87.95
2018-01-18T14:07:05.836Z,87.82
2018-01-18T14:09:07.458Z,87.62
2018-01-18T14:11:09.391Z,88.10
2018-01-18T14:13:10.945Z,88.20
2018-01-18T14:15:12.637Z,87.53
2018-01-18T14:17:14.135Z,87.82
2018-01-18T14:19:15.689Z,87.95
2018-01-18T14:21:17.366Z,86.20
2018-01-18T14:23:18.995Z,85.63
2018-01-18T14:25:20.760Z,86.77
2018-01-18T14:27:22.582Z,86.91
2018-01-18T14:29:24.454Z,88.01
2018-01-18T14:31:26.285Z,88.10
2018-01-18T14:33:28.209Z,88.34
2018-01-18T14:35:30.043Z,87.48
2018-01-18T14:37:31.643Z,87.53
2018-01-18T14:39:33.263Z,87.43
2018-01-18T14:41:34.897Z,87.43
2018-01-18T14:44:17.303Z,87.24
2018-01-18T14:46:18.730Z,87.34
2018-01-18T14:48:20.161Z,87.62
2018-01-18T14:50:21.624Z,88.01
2018-01-18T14:52:23.594Z,86.96
2018-01-18T14:54:25.249Z,87.24
2018-01-18T14:56:27.178Z,87.62
2018-01-18T14:58:28.747Z,88.10
2018-01-18T15:00:30.452Z,87.43
2018-01-18T15:02:31.858Z,88.86
2018-01-18T15:04:33.259Z,88.39
2018-01-18T15:06:34.738Z,87.72
2018-01-18T15:08:36.398Z,87.91
2018-01-18T15:10:38.221Z,88.20
2018-01-18T15:12:40.232Z,89.62
2018-01-18T15:14:42.089Z,91.33
2018-01-18T15:16:43.720Z,91.71
2018-01-18T15:18:45.491Z,92.28
2018-01-18T15:20:47.012Z,93.13
2018-01-18T15:22:48.860Z,93.41
2018-01-18T15:24:50.611Z,93.75
2018-01-18T15:26:52.249Z,94.70
2018-01-18T15:28:54.199Z,94.70
2018-01-18T15:30:56.452Z,95.46
2018-01-18T15:32:58.120Z,96.03
2018-01-18T15:34:59.787Z,96.83
2018-01-18T15:37:01.380Z,96.88
2018-01-18T15:39:02.942Z,96.64
2018-01-18T15:41:04.471Z,96.83
2018-01-18T15:43:05.985Z,96.55
2018-01-18T15:45:07.519Z,96.69
2018-01-18T15:47:09.064Z,97.45
2018-01-18T15:49:10.791Z,97.45
2018-01-18T15:51:12.335Z,97.36
2018-01-18T15:53:13.860Z,96.50
2018-01-18T15:55:15.456Z,96.50
2018-01-18T15:57:16.989Z,96.69
2018-01-18T15:59:18.676Z,95.84
2018-01-18T16:01:20.288Z,95.84
2018-01-18T16:03:21.794Z,95.84
2018-01-18T16:05:23.310Z,96.12
2018-01-18T16:07:25.091Z,96.31
2018-01-18T16:09:26.573Z,96.22
2018-01-18T16:11:28.201Z,96.50
2018-01-18T16:13:29.756Z,96.22
2018-01-18T16:15:31.344Z,95.65
2018-01-18T16:17:32.871Z,94.89
2018-01-18T16:19:34.516Z,94.42
2018-01-18T16:21:36.035Z,95.07
2018-01-18T16:23:37.470Z,95.27
2018-01-18T16:25:38.924Z,95.46
2018-01-18T16:27:40.440Z,96.69
2018-01-18T16:29:42.787Z,97.31
2018-01-18T16:31:45.196Z,98.73
2018-01-18T16:33:46.806Z,98.63
2018-01-18T16:35:48.748Z,99.39
2018-01-18T16:37:50.368Z,99.30
2018-01-18T16:39:52.041Z,99.49
2018-01-18T16:41:53.759Z,99.87
2018-01-18T16:43:55.209Z,99.01
2018-01-18T16:45:56.725Z,99.49
2018-01-18T16:47:58.369Z,99.77
2018-01-18T16:49:59.932Z,99.58
2018-01-18T16:52:01.576Z,99.87
2018-01-18T16:54:03.052Z,99.87
2018-01-18T16:56:04.540Z,99.77
2018-01-18T16:58:06.065Z,99.68
2018-01-18T17:00:08.533Z,99.68
2018-01-18T17:02:10.608Z,99.96
2018-01-18T17:04:12.113Z,98.35
2018-01-18T17:06:13.577Z,98.92
2018-01-18T17:08:15.257Z,98.35
2018-01-18T17:10:16.994Z,97.97
2018-01-18T17:12:18.467Z,98.54
2018-01-18T17:14:20.146Z,98.25
2018-01-18T17:16:21.826Z,97.88
2018-01-18T17:18:24.639Z,98.25
2018-01-18T17:20:26.534Z,97.88
2018-01-18T17:22:28.113Z,97.88
2018-01-18T17:24:29.582Z,98.07
2018-01-18T17:26:31.609Z,98.35
2018-01-18T17:28:33.252Z,98.25
2018-01-18T17:30:35.226Z,97.97
2018-01-18T17:32:36.940Z,97.02
2018-01-18T17:34:38.870Z,97.40
2018-01-18T17:36:40.790Z,97.69
2018-01-18T17:38:42.640Z,98.25
2018-01-18T17:40:44.338Z,98.73
2018-01-18T17:42:46.187Z,99.99
2018-01-18T17:44:47.694Z,99.99
2018-01-18T17:46:49.205Z,99.99
2018-01-18T17:48:50.697Z,99.91
2018-01-18T17:50:52.360Z,99.99
2018-01-18T17:52:53.986Z,99.99
2018-01-18T17:54:55.742Z,99.99
2018-01-18T17:56:57.267Z,99.99
2018-01-18T17:58:58.801Z,99.99
2018-01-18T18:01:00.522Z,99.99
2018-01-18T18:03:02.261Z,99.99
2018-01-18T18:05:03.691Z,99.99
2018-01-18T18:07:05.332Z,99.99
2018-01-18T18:09:06.842Z,99.99
2018-01-18T18:11:08.739Z,99.99
2018-01-18T18:13:10.243Z,99.99
2018-01-18T18:15:11.765Z,99.99
2018-01-18T18:17:13.254Z,99.99
2018-01-18T18:19:14.737Z,99.99
2018-01-18T18:21:16.478Z,99.99
2018-01-18T18:23:18.122Z,99.99
2018-01-18T18:25:19.929Z,99.99
2018-01-18T18:27:21.385Z,99.99
2018-01-18T18:29:22.878Z,99.99
2018-01-18T18:31:24.378Z,99.99
2018-01-18T18:33:26.164Z,99.99
2018-01-18T18:35:27.800Z,99.99
2018-01-18T18:37:29.415Z,99.99
2018-01-18T18:39:31.200Z,99.99
2018-01-18T18:41:33.037Z,99.99
2018-01-18T18:43:34.776Z,99.99
2018-01-18T18:45:36.272Z,99.99
2018-01-18T18:47:37.788Z,99.99
2018-01-18T18:49:39.307Z,99.99
2018-01-18T18:51:41.007Z,99.99
2018-01-18T18:53:42.776Z,99.99
2018-01-18T18:55:44.618Z,99.99
2018-01-18T18:57:46.212Z,99.99
2018-01-18T18:59:47.954Z,99.99
2018-01-18T19:01:49.502Z,99.99
2018-01-18T19:03:50.983Z,99.99
2018-01-18T19:05:52.514Z,99.99
2018-01-18T19:07:54.026Z,99.99
2018-01-18T19:09:55.744Z,99.99
2018-01-18T19:11:57.829Z,99.99
2018-01-18T19:13:59.705Z,99.99
2018-01-18T19:16:42.595Z,99.99
2018-01-18T19:18:43.967Z,99.99
2018-01-18T19:20:45.371Z,99.99
2018-01-18T19:22:46.773Z,99.99
2018-01-18T19:24:48.866Z,99.99
2018-01-18T19:26:50.422Z,99.99
2018-01-18T19:28:52.117Z,99.99
2018-01-18T19:30:53.856Z,99.99
2018-01-18T19:32:55.773Z,99.99
2018-01-18T19:35:39.683Z,99.99
2018-01-18T19:37:41.222Z,99.99
2018-01-18T19:39:42.595Z,99.99
2018-01-18T19:41:44.000Z,99.99
2018-01-18T19:43:45.403Z,99.99
2018-01-18T19:45:46.804Z,99.99
2018-01-18T19:47:48.213Z,99.99
2018-01-18T19:49:49.720Z,99.99
2018-01-18T19:51:51.361Z,99.99
2018-01-18T19:54:33.787Z,99.77
2018-01-18T19:56:35.192Z,99.86
2018-01-18T19:58:36.616Z,99.99
2018-01-18T20:00:38.007Z,99.99
2018-01-18T20:02:39.438Z,99.99
2018-01-18T20:04:40.937Z,99.99
2018-01-18T20:06:42.468Z,99.99
2018-01-18T20:08:44.189Z,99.99
2018-01-18T20:10:46.002Z,99.99
2018-01-18T20:12:48.607Z,99.99
2018-01-18T20:14:50.361Z,99.99
2018-01-18T20:16:52.173Z,99.99
2018-01-18T20:18:53.921Z,99.99
2018-01-18T20:20:55.440Z,99.99
2018-01-18T20:22:57.075Z,99.99
2018-01-18T20:24:58.831Z,99.99
2018-01-18T20:27:00.403Z,99.99
2018-01-18T20:29:02.566Z,99.99
2018-01-18T20:31:04.073Z,99.99
2018-01-18T20:33:46.976Z,99.99
2018-01-18T20:35:48.352Z,99.99
2018-01-18T20:37:51.539Z,99.99
2018-01-18T20:39:52.902Z,99.99
2018-01-18T20:41:54.448Z,99.99
2018-01-18T20:43:55.922Z,99.99
2018-01-18T20:46:38.308Z,99.99
2018-01-18T20:48:39.882Z,99.99
2018-01-18T20:50:42.240Z,99.99
2018-01-18T20:53:24.883Z,99.99
2018-01-18T20:55:26.276Z,99.99
2018-01-18T20:57:27.677Z,99.99
2018-01-18T20:59:30.797Z,99.99
2018-01-18T21:01:32.902Z,99.99
2018-01-18T21:03:35.067Z,99.99
2018-01-18T21:05:36.613Z,99.99
2018-01-18T21:07:38.366Z,99.99
2018-01-18T21:09:40.089Z,99.99
2018-01-18T21:12:23.612Z,99.99
2018-01-18T21:14:25.448Z,99.99
2018-01-18T21:16:27.888Z,99.99
2018-01-18T21:18:29.301Z,99.99
2018-01-18T21:20:30.691Z,99.96
2018-01-18T21:23:14.315Z,99.39
2018-01-18T21:25:15.712Z,99.77
2018-01-18T21:27:18.064Z,99.48
2018-01-18T21:29:19.885Z,99.67
2018-01-18T21:32:02.913Z,99.77
2018-01-18T21:34:04.544Z,99.96
2018-01-18T21:36:06.990Z,99.10
2018-01-18T21:38:08.154Z,99.58
2018-01-18T21:40:09.588Z,98.91
2018-01-18T21:42:11.030Z,99.29
2018-01-18T21:44:12.511Z,99.48
2018-01-18T21:46:55.978Z,99.86
2018-01-18T21:48:57.960Z,99.99
2018-01-18T21:51:41.321Z,99.99
2018-01-18T21:53:42.706Z,99.99
2018-01-18T21:55:44.113Z,99.86
2018-01-18T21:57:45.513Z,99.48
2018-01-18T21:59:49.014Z,99.01
2018-01-18T22:01:50.470Z,99.01
2018-01-18T22:03:52.035Z,98.25
2018-01-18T22:06:35.117Z,98.44
2018-01-18T22:08:36.518Z,98.06
2018-01-18T22:10:38.866Z,98.06
2018-01-18T22:12:40.550Z,98.63
2018-01-18T22:14:42.925Z,97.97
2018-01-18T22:16:44.333Z,97.11
2018-01-18T22:18:45.826Z,95.93
2018-01-18T22:20:47.929Z,94.70
2018-01-18T22:22:49.727Z,93.65
2018-01-18T22:25:31.334Z,92.52
2018-01-18T22:27:33.314Z,92.42
2018-01-18T22:29:35.067Z,91.47
2018-01-18T22:31:36.582Z,91.38
2018-01-18T22:33:37.979Z,92.14
2018-01-18T22:35:39.412Z,93.56
2018-01-18T22:37:40.871Z,94.93
2018-01-18T22:39:42.488Z,96.07
2018-01-18T22:41:44.267Z,94.93
2018-01-18T22:43:45.706Z,95.22
2018-01-18T22:46:28.535Z,94.93
2018-01-18T22:48:29.934Z,94.93
2018-01-18T22:50:32.339Z,95.22
2018-01-18T22:52:34.183Z,96.64
2018-01-18T22:54:35.885Z,97.21
2018-01-18T22:56:37.320Z,97.40
2018-01-18T22:58:38.757Z,97.49
2018-01-18T23:00:40.859Z,98.54
2018-01-18T23:02:42.681Z,97.68
2018-01-18T23:05:25.592Z,96.26
2018-01-18T23:07:27.783Z,94.74
2018-01-18T23:09:29.102Z,93.27
2018-01-18T23:11:30.505Z,92.76
2018-01-18T23:13:31.932Z,94.37
2018-01-18T23:15:33.967Z,95.50
2018-01-18T23:17:36.123Z,97.78
2018-01-18T23:19:37.549Z,98.20
2018-01-18T23:21:39.558Z,98.63
2018-01-18T23:23:40.961Z,98.25
2018-01-18T23:26:24.087Z,98.63
2018-01-18T23:28:25.478Z,98.39
2018-01-18T23:30:28.182Z,97.82
2018-01-18T23:32:29.925Z,98.39
2018-01-18T23:34:31.931Z,99.52
2018-01-18T23:36:33.431Z,99.62
2018-01-18T23:38:34.846Z,99.99
2018-01-18T23:40:36.373Z,99.99
2018-01-18T23:42:37.864Z,99.99
2018-01-18T23:44:39.268Z,99.99
2018-01-18T23:47:21.636Z,99.99
2018-01-18T23:49:23.470Z,99.99
2018-01-18T23:51:24.917Z,99.99
2018-01-18T23:53:26.320Z,99.99
2018-01-18T23:55:28.255Z,99.99
2018-01-18T23:57:29.774Z,99.99
2018-01-18T23:59:31.485Z,99.99
